createdAt,value
2019-02-19T00:00:03.373Z,18.14
2019-02-19T00:01:03.369Z,18.15
2019-02-19T00:02:03.349Z,18.15
2019-02-19T00:03:03.345Z,18.15
2019-02-19T00:04:03.385Z,18.14
2019-02-19T00:05:03.325Z,18.14
2019-02-19T00:06:03.310Z,18.14
2019-02-19T00:07:03.302Z,18.15
2019-02-19T00:08:03.287Z,18.14
2019-02-19T00:09:03.323Z,18.14
2019-02-19T00:10:03.265Z,18.14
2019-02-19T00:11:03.258Z,18.15
2019-02-19T00:12:03.244Z,18.14
2019-02-19T00:13:03.233Z,18.14
2019-02-19T00:14:03.257Z,18.14
2019-02-19T00:15:08.233Z,18.14
2019-02-19T00:16:04.203Z,18.14
2019-02-19T00:17:03.237Z,18.14
2019-02-19T00:18:03.181Z,18.14
2019-02-19T00:19:03.169Z,18.14
2019-02-19T00:20:03.161Z,18.14
2019-02-19T00:21:03.151Z,18.15
2019-02-19T00:22:03.169Z,18.14
2019-02-19T00:23:03.127Z,18.14
2019-02-19T00:24:03.144Z,18.14
2019-02-19T00:25:03.110Z,18.15
2019-02-19T00:26:03.100Z,18.14
2019-02-19T00:27:03.117Z,18.15
2019-02-19T00:28:03.100Z,18.15
2019-02-19T00:29:03.064Z,18.14
2019-02-19T00:30:03.087Z,18.14
2019-02-19T00:31:03.050Z,18.17
2019-02-19T00:32:03.031Z,18.15
2019-02-19T00:33:03.019Z,18.15
2019-02-19T00:34:03.040Z,18.15
2019-02-19T00:35:03.000Z,18.15
2019-02-19T00:36:04.869Z,18.15
2019-02-19T00:37:03.008Z,18.15
2019-02-19T00:38:02.965Z,18.14
2019-02-19T00:39:02.989Z,18.15
2019-02-19T00:40:02.954Z,18.15
2019-02-19T00:41:02.938Z,18.14
2019-02-19T00:42:02.953Z,18.15
2019-02-19T00:43:02.925Z,18.15
2019-02-19T00:44:02.948Z,18.15
2019-02-19T00:45:02.891Z,18.14
2019-02-19T00:46:02.884Z,18.14
2019-02-19T00:47:02.873Z,18.15
2019-02-19T00:48:02.859Z,18.14
2019-02-19T00:49:02.898Z,18.14
2019-02-19T00:50:02.845Z,18.14
2019-02-19T00:51:02.825Z,18.14
2019-02-19T00:52:02.818Z,18.14
2019-02-19T00:53:02.807Z,18.14
2019-02-19T00:54:02.827Z,18.12
2019-02-19T00:55:02.787Z,18.12
2019-02-19T00:56:02.811Z,18.12
2019-02-19T00:57:02.764Z,18.12
2019-02-19T00:58:02.759Z,18.14
2019-02-19T00:59:02.750Z,18.12
2019-02-19T01:00:02.772Z,18.12
2019-02-19T01:01:02.719Z,18.14
2019-02-19T01:02:02.715Z,18.12
2019-02-19T01:03:02.703Z,18.12
2019-02-19T01:04:02.690Z,18.12
2019-02-19T01:05:02.715Z,18.12
2019-02-19T01:06:02.670Z,18.12
2019-02-19T01:07:02.661Z,18.11
2019-02-19T01:08:02.674Z,18.12
2019-02-19T01:09:02.634Z,18.12
2019-02-19T01:10:02.631Z,18.12
2019-02-19T01:11:02.636Z,18.12
2019-02-19T01:12:02.609Z,18.12
2019-02-19T01:13:02.592Z,18.11
2019-02-19T01:14:02.587Z,18.11
2019-02-19T01:15:02.611Z,18.10
2019-02-19T01:16:02.601Z,18.11
2019-02-19T01:17:02.555Z,18.11
2019-02-19T01:18:02.546Z,18.11
2019-02-19T01:19:02.527Z,18.10
2019-02-19T01:20:02.520Z,18.10
2019-02-19T01:21:02.549Z,18.10
2019-02-19T01:22:02.496Z,18.11
2019-02-19T01:23:02.490Z,18.11
2019-02-19T01:24:02.480Z,18.10
2019-02-19T01:25:02.469Z,18.11
2019-02-19T01:26:02.493Z,18.11
2019-02-19T01:27:02.468Z,18.08
2019-02-19T01:28:02.441Z,18.11
2019-02-19T01:29:02.424Z,18.10
2019-02-19T01:30:02.419Z,18.10
2019-02-19T01:31:02.435Z,18.10
2019-02-19T01:32:02.396Z,18.10
2019-02-19T01:33:02.382Z,18.10
2019-02-19T01:34:02.369Z,18.10
2019-02-19T01:35:02.362Z,18.10
2019-02-19T01:36:02.396Z,18.10
2019-02-19T01:37:02.342Z,18.10
2019-02-19T01:38:02.332Z,18.10
2019-02-19T01:39:02.320Z,18.10
2019-02-19T01:40:02.311Z,18.10
2019-02-19T01:41:02.341Z,18.10
2019-02-19T01:42:02.287Z,18.10
2019-02-19T01:43:02.298Z,18.08
2019-02-19T01:44:02.262Z,18.11
2019-02-19T01:45:02.257Z,18.10
2019-02-19T01:46:02.289Z,18.08
2019-02-19T01:47:02.237Z,18.10
2019-02-19T01:48:02.220Z,18.08
2019-02-19T01:49:02.210Z,18.10
2019-02-19T01:50:02.203Z,18.10
2019-02-19T01:51:02.231Z,18.08
2019-02-19T01:52:02.176Z,18.08
2019-02-19T01:53:02.171Z,18.08
2019-02-19T01:54:02.158Z,18.08
2019-02-19T01:55:02.144Z,18.10
2019-02-19T01:56:02.165Z,18.08
2019-02-19T01:57:02.127Z,18.08
2019-02-19T01:58:02.152Z,18.08
2019-02-19T01:59:02.109Z,18.10
2019-02-19T02:00:02.129Z,18.08
2019-02-19T02:01:02.082Z,18.08
2019-02-19T02:02:02.077Z,18.10
2019-02-19T02:03:02.066Z,18.08
2019-02-19T02:04:02.055Z,18.08
2019-02-19T02:05:02.076Z,18.08
2019-02-19T02:06:02.032Z,18.08
2019-02-19T02:07:02.016Z,18.08
2019-02-19T02:08:02.007Z,18.08
2019-02-19T02:09:02.003Z,18.08
2019-02-19T02:10:02.021Z,18.08
2019-02-19T02:11:02.017Z,18.07
2019-02-19T02:12:01.994Z,18.08
2019-02-19T02:13:01.957Z,18.08
2019-02-19T02:14:01.944Z,18.08
2019-02-19T02:15:01.932Z,18.08
2019-02-19T02:16:01.949Z,18.10
2019-02-19T02:17:01.917Z,18.10
2019-02-19T02:18:01.910Z,18.08
2019-02-19T02:19:01.901Z,18.08
2019-02-19T02:20:01.880Z,18.08
2019-02-19T02:21:01.913Z,18.10
2019-02-19T02:22:01.885Z,18.10
2019-02-19T02:23:01.845Z,18.08
2019-02-19T02:24:01.837Z,18.08
2019-02-19T02:25:01.823Z,18.07
2019-02-19T02:26:01.819Z,18.08
2019-02-19T02:27:01.849Z,18.10
2019-02-19T02:28:01.796Z,18.08
2019-02-19T02:29:01.789Z,18.08
2019-02-19T02:30:01.775Z,18.10
2019-02-19T02:31:01.830Z,18.08
2019-02-19T02:32:01.780Z,18.10
2019-02-19T02:33:01.749Z,18.08
2019-02-19T02:34:01.734Z,18.08
2019-02-19T02:35:01.747Z,18.08
2019-02-19T02:36:01.716Z,18.08
2019-02-19T02:37:01.705Z,18.08
2019-02-19T02:38:01.695Z,18.05
2019-02-19T02:39:01.677Z,18.08
2019-02-19T02:40:01.702Z,18.07
2019-02-19T02:41:01.687Z,18.08
2019-02-19T02:42:01.792Z,18.07
2019-02-19T02:43:01.668Z,18.07
2019-02-19T02:44:01.629Z,18.08
2019-02-19T02:45:01.621Z,18.07
2019-02-19T02:46:01.602Z,18.08
2019-02-19T02:47:01.623Z,18.07
2019-02-19T02:48:01.588Z,18.08
2019-02-19T02:49:01.576Z,18.05
2019-02-19T02:50:01.651Z,18.07
2019-02-19T02:51:01.585Z,18.07
2019-02-19T02:52:01.566Z,18.08
2019-02-19T02:53:01.533Z,18.07
2019-02-19T02:54:01.524Z,18.07
2019-02-19T02:55:01.547Z,18.07
2019-02-19T02:56:01.497Z,18.07
2019-02-19T02:57:01.485Z,18.07
2019-02-19T02:58:01.477Z,18.10
2019-02-19T02:59:01.470Z,18.08
2019-02-19T03:00:01.486Z,18.07
2019-02-19T03:01:01.446Z,18.05
2019-02-19T03:02:01.430Z,18.08
2019-02-19T03:03:01.458Z,18.08
2019-02-19T03:04:01.411Z,18.07
2019-02-19T03:05:01.405Z,18.07
2019-02-19T03:06:01.392Z,18.07
2019-02-19T03:07:01.417Z,18.07
2019-02-19T03:08:01.369Z,18.07
2019-02-19T03:09:01.356Z,18.07
2019-02-19T03:10:01.352Z,18.07
2019-02-19T03:11:01.337Z,18.07
2019-02-19T03:12:01.365Z,18.05
2019-02-19T03:13:01.318Z,18.08
2019-02-19T03:14:01.306Z,18.05
2019-02-19T03:15:01.297Z,18.07
2019-02-19T03:16:02.711Z,18.07
2019-02-19T03:17:01.302Z,18.07
2019-02-19T03:18:01.260Z,18.07
2019-02-19T03:19:01.253Z,18.05
2019-02-19T03:20:01.326Z,18.07
2019-02-19T03:21:01.281Z,18.05
2019-02-19T03:22:01.219Z,18.07
2019-02-19T03:23:01.215Z,18.07
2019-02-19T03:24:01.201Z,18.07
2019-02-19T03:25:01.190Z,18.07
2019-02-19T03:26:01.207Z,18.07
2019-02-19T03:27:01.179Z,18.07
2019-02-19T03:28:01.203Z,18.07
2019-02-19T03:29:01.150Z,18.05
2019-02-19T03:30:01.140Z,18.05
2019-02-19T03:31:01.136Z,18.07
2019-02-19T03:32:01.156Z,18.07
2019-02-19T03:33:01.105Z,18.05
2019-02-19T03:34:01.096Z,18.05
2019-02-19T03:35:01.101Z,18.07
2019-02-19T03:36:01.074Z,18.05
2019-02-19T03:37:01.095Z,18.05
2019-02-19T03:38:01.049Z,18.07
2019-02-19T03:39:01.071Z,18.07
2019-02-19T03:40:01.033Z,18.07
2019-02-19T03:41:01.017Z,18.05
2019-02-19T03:42:01.009Z,18.07
2019-02-19T03:43:01.037Z,18.05
2019-02-19T03:44:00.992Z,18.05
2019-02-19T03:45:01.014Z,18.05
2019-02-19T03:46:00.966Z,18.07
2019-02-19T03:47:00.961Z,18.05
2019-02-19T03:48:00.972Z,18.03
2019-02-19T03:49:00.934Z,18.05
2019-02-19T03:50:00.952Z,18.05
2019-02-19T03:51:00.914Z,18.05
2019-02-19T03:52:00.911Z,18.05
2019-02-19T03:53:00.897Z,18.05
2019-02-19T03:54:00.882Z,18.05
2019-02-19T03:55:00.898Z,18.03
2019-02-19T03:56:00.861Z,18.05
2019-02-19T03:57:00.846Z,18.03
2019-02-19T03:58:00.836Z,18.05
2019-02-19T03:59:00.826Z,18.05
2019-02-19T04:00:00.849Z,18.05
2019-02-19T04:01:00.833Z,18.05
2019-02-19T04:02:00.803Z,18.03
2019-02-19T04:03:00.783Z,18.03
2019-02-19T04:04:00.774Z,18.05
2019-02-19T04:05:00.773Z,18.07
2019-02-19T04:06:00.790Z,18.05
2019-02-19T04:07:00.740Z,18.07
2019-02-19T04:08:00.728Z,18.03
2019-02-19T04:09:00.719Z,18.05
2019-02-19T04:10:00.734Z,18.05
2019-02-19T04:11:00.730Z,18.05
2019-02-19T04:12:00.688Z,18.05
2019-02-19T04:13:00.684Z,18.05
2019-02-19T04:14:00.670Z,18.05
2019-02-19T04:15:00.654Z,18.07
2019-02-19T04:16:00.684Z,18.05
2019-02-19T04:17:00.641Z,18.05
2019-02-19T04:18:00.630Z,18.05
2019-02-19T04:19:00.618Z,18.05
2019-02-19T04:20:00.606Z,18.07
2019-02-19T04:21:00.619Z,18.03
2019-02-19T04:22:00.578Z,18.05
2019-02-19T04:23:00.600Z,18.03
2019-02-19T04:24:00.560Z,18.05
2019-02-19T04:25:00.550Z,18.05
2019-02-19T04:26:00.540Z,18.05
2019-02-19T04:27:00.533Z,18.03
2019-02-19T04:28:00.557Z,18.03
2019-02-19T04:29:00.511Z,18.05
2019-02-19T04:30:00.503Z,18.05
2019-02-19T04:31:00.491Z,18.03
2019-02-19T04:32:00.481Z,18.05
2019-02-19T04:33:00.501Z,18.03
2019-02-19T04:34:00.455Z,18.05
2019-02-19T04:35:00.443Z,18.03
2019-02-19T04:36:00.463Z,18.05
2019-02-19T04:37:00.424Z,18.03
2019-02-19T04:38:00.446Z,18.03
2019-02-19T04:39:00.421Z,18.05
2019-02-19T04:40:00.391Z,18.03
2019-02-19T04:41:00.385Z,18.03
2019-02-19T04:42:00.372Z,18.05
2019-02-19T04:43:00.392Z,18.03
2019-02-19T04:44:00.349Z,18.03
2019-02-19T04:45:00.474Z,18.03
2019-02-19T04:46:00.400Z,18.03
2019-02-19T04:47:00.317Z,18.03
2019-02-19T04:48:00.306Z,18.03
2019-02-19T04:49:00.298Z,18.05
2019-02-19T04:50:00.293Z,18.03
2019-02-19T04:51:00.303Z,18.03
2019-02-19T04:52:00.263Z,18.03
2019-02-19T04:53:00.256Z,18.03
2019-02-19T04:54:00.242Z,18.03
2019-02-19T04:55:00.298Z,18.03
2019-02-19T04:56:00.263Z,18.03
2019-02-19T04:57:00.212Z,18.03
2019-02-19T04:58:00.207Z,18.02
2019-02-19T04:59:00.191Z,18.03
2019-02-19T05:00:00.342Z,18.03
2019-02-19T05:01:00.197Z,18.03
2019-02-19T05:02:00.173Z,18.02
2019-02-19T05:03:00.145Z,18.03
2019-02-19T05:04:00.138Z,18.03
2019-02-19T05:05:00.225Z,18.03
2019-02-19T05:06:00.110Z,18.03
2019-02-19T05:07:00.131Z,18.05
2019-02-19T05:08:00.092Z,18.02
2019-02-19T05:09:00.094Z,18.02
2019-02-19T05:10:00.358Z,18.02
2019-02-19T05:11:00.059Z,18.03
2019-02-19T05:12:00.052Z,18.02
2019-02-19T05:13:00.038Z,18.02
2019-02-19T05:14:00.028Z,18.03
2019-02-19T05:15:00.050Z,18.02
2019-02-19T05:16:00.004Z,18.02
2019-02-19T05:17:00.047Z,18.03
2019-02-19T05:17:59.993Z,18.02
2019-02-19T05:18:59.973Z,18.03
2019-02-19T05:19:59.968Z,18.02
2019-02-19T05:21:00.002Z,18.02
2019-02-19T05:21:59.974Z,18.02
2019-02-19T05:22:59.939Z,18.03
2019-02-19T05:23:59.924Z,18.03
2019-02-19T05:24:59.910Z,18.03
2019-02-19T05:25:59.895Z,18.03
2019-02-19T05:26:59.916Z,18.03
2019-02-19T05:27:59.878Z,18.03
2019-02-19T05:28:59.871Z,18.02
2019-02-19T05:29:59.887Z,18.03
2019-02-19T05:30:59.842Z,18.02
2019-02-19T05:31:59.864Z,18.02
2019-02-19T05:32:59.826Z,18.03
2019-02-19T05:33:59.819Z,18.03
2019-02-19T05:34:59.803Z,18.00
2019-02-19T05:35:59.842Z,18.02
2019-02-19T05:36:59.786Z,18.03
2019-02-19T05:37:59.807Z,18.03
2019-02-19T05:38:59.758Z,18.02
2019-02-19T05:39:59.756Z,18.03
2019-02-19T05:40:59.770Z,18.03
2019-02-19T05:41:59.730Z,18.03
2019-02-19T05:43:01.519Z,18.02
2019-02-19T05:43:59.712Z,18.03
2019-02-19T05:44:59.692Z,18.02
2019-02-19T05:45:59.712Z,18.02
2019-02-19T05:46:59.676Z,18.03
2019-02-19T05:47:59.667Z,18.03
2019-02-19T05:48:59.656Z,18.02
2019-02-19T05:49:59.649Z,18.02
2019-02-19T05:50:59.670Z,18.03
2019-02-19T05:51:59.621Z,18.02
2019-02-19T05:52:59.617Z,18.02
2019-02-19T05:53:59.613Z,18.03
2019-02-19T05:54:59.588Z,18.03
2019-02-19T05:55:59.622Z,18.03
2019-02-19T05:56:59.572Z,18.02
2019-02-19T05:57:59.569Z,18.03
2019-02-19T05:58:59.549Z,18.03
2019-02-19T05:59:59.535Z,18.03
2019-02-19T06:00:59.565Z,18.05
2019-02-19T06:01:59.531Z,18.05
2019-02-19T06:02:59.504Z,18.02
2019-02-19T06:03:59.495Z,18.03
2019-02-19T06:04:59.482Z,18.03
2019-02-19T06:05:59.511Z,18.03
2019-02-19T06:06:59.464Z,18.00
2019-02-19T06:07:59.454Z,18.03
2019-02-19T06:08:59.448Z,18.02
2019-02-19T06:09:59.434Z,18.02
2019-02-19T06:10:59.461Z,18.03
2019-02-19T06:11:59.417Z,18.03
2019-02-19T06:12:59.400Z,18.03
2019-02-19T06:13:59.416Z,18.03
2019-02-19T06:14:59.374Z,18.02
2019-02-19T06:15:59.392Z,18.02
2019-02-19T06:16:59.353Z,18.00
2019-02-19T06:17:59.343Z,18.02
2019-02-19T06:18:59.367Z,17.99
2019-02-19T06:19:59.321Z,18.03
2019-02-19T06:20:59.313Z,18.00
2019-02-19T06:21:59.307Z,18.02
2019-02-19T06:22:59.293Z,18.02
2019-02-19T06:23:59.316Z,18.02
2019-02-19T06:24:59.270Z,18.00
2019-02-19T06:25:59.257Z,18.02
2019-02-19T06:26:59.246Z,18.02
2019-02-19T06:27:59.271Z,18.02
2019-02-19T06:28:59.226Z,18.02
2019-02-19T06:29:59.248Z,18.00
2019-02-19T06:30:59.214Z,18.02
2019-02-19T06:31:59.198Z,18.00
2019-02-19T06:32:59.191Z,18.02
2019-02-19T06:33:59.182Z,18.00
2019-02-19T06:34:59.215Z,17.99
2019-02-19T06:35:59.150Z,18.00
2019-02-19T06:36:59.142Z,18.00
2019-02-19T06:37:59.133Z,18.02
2019-02-19T06:38:59.122Z,18.00
2019-02-19T06:39:59.142Z,17.99
2019-02-19T06:40:59.097Z,18.00
2019-02-19T06:41:59.088Z,18.02
2019-02-19T06:42:59.082Z,18.00
2019-02-19T06:43:59.071Z,18.00
2019-02-19T06:44:59.089Z,18.02
2019-02-19T06:45:59.050Z,18.00
2019-02-19T06:47:06.498Z,18.00
2019-02-19T06:48:00.027Z,17.99
2019-02-19T06:48:59.047Z,18.00
2019-02-19T06:49:59.008Z,18.00
2019-02-19T06:50:58.994Z,17.99
2019-02-19T06:51:58.982Z,18.00
2019-02-19T06:52:58.969Z,17.99
2019-02-19T06:53:58.996Z,18.00
2019-02-19T06:54:58.955Z,18.02
2019-02-19T06:55:58.940Z,18.00
2019-02-19T06:56:58.929Z,18.00
2019-02-19T06:57:58.950Z,18.00
2019-02-19T06:58:58.909Z,18.00
2019-02-19T06:59:58.902Z,18.00
2019-02-19T07:00:58.916Z,18.00
2019-02-19T07:01:58.882Z,18.00
2019-02-19T07:02:58.865Z,18.00
2019-02-19T07:03:58.857Z,18.00
2019-02-19T07:04:58.841Z,17.99
2019-02-19T07:05:58.862Z,18.00
2019-02-19T07:06:58.827Z,18.00
2019-02-19T07:07:58.812Z,17.99
2019-02-19T07:08:58.799Z,18.00
2019-02-19T07:09:58.787Z,18.02
2019-02-19T07:10:58.808Z,18.00
2019-02-19T07:11:58.970Z,18.00
2019-02-19T07:12:58.764Z,18.00
2019-02-19T07:13:58.748Z,18.02
2019-02-19T07:14:58.735Z,18.00
2019-02-19T07:15:58.727Z,18.00
2019-02-19T07:16:58.742Z,18.02
2019-02-19T07:17:58.736Z,18.00
2019-02-19T07:18:58.695Z,18.02
2019-02-19T07:19:58.685Z,18.00
2019-02-19T07:20:58.670Z,18.02
2019-02-19T07:21:58.659Z,18.02
2019-02-19T07:22:58.674Z,18.00
2019-02-19T07:24:04.530Z,18.03
2019-02-19T07:24:59.630Z,18.00
2019-02-19T07:25:58.620Z,18.02
2019-02-19T07:26:58.605Z,18.00
2019-02-19T07:27:58.601Z,18.00
2019-02-19T07:28:58.624Z,17.99
2019-02-19T07:29:58.578Z,17.99
2019-02-19T07:30:58.571Z,18.00
2019-02-19T07:31:58.551Z,18.02
2019-02-19T07:32:58.572Z,18.02
2019-02-19T07:33:58.541Z,18.02
2019-02-19T07:34:58.556Z,18.02
2019-02-19T07:35:58.513Z,18.02
2019-02-19T07:36:58.501Z,18.02
2019-02-19T07:37:58.497Z,18.00
2019-02-19T07:38:58.482Z,18.00
2019-02-19T07:39:58.505Z,18.02
2019-02-19T07:40:58.463Z,18.03
2019-02-19T07:41:58.482Z,18.02
2019-02-19T07:42:58.434Z,18.02
2019-02-19T07:43:58.429Z,18.02
2019-02-19T07:44:58.420Z,18.02
2019-02-19T07:45:58.410Z,18.03
2019-02-19T07:46:58.427Z,18.00
2019-02-19T07:47:58.385Z,18.00
2019-02-19T07:48:58.372Z,18.00
2019-02-19T07:49:58.363Z,18.02
2019-02-19T07:50:58.352Z,18.02
2019-02-19T07:51:58.376Z,18.02
2019-02-19T07:52:58.333Z,18.02
2019-02-19T07:53:58.318Z,18.02
2019-02-19T07:54:58.307Z,18.02
2019-02-19T07:55:58.300Z,18.02
2019-02-19T07:56:58.332Z,18.00
2019-02-19T07:57:58.277Z,18.03
2019-02-19T07:58:58.270Z,18.02
2019-02-19T07:59:58.257Z,18.02
2019-02-19T08:00:58.243Z,18.00
2019-02-19T08:01:59.224Z,17.99
2019-02-19T08:02:58.227Z,18.02
2019-02-19T08:03:58.216Z,18.00
2019-02-19T08:04:58.204Z,18.00
2019-02-19T08:05:58.191Z,18.00
2019-02-19T08:06:58.213Z,18.02
2019-02-19T08:07:58.174Z,17.99
2019-02-19T08:08:58.161Z,18.02
2019-02-19T08:09:58.150Z,18.02
2019-02-19T08:10:58.135Z,18.00
2019-02-19T08:11:58.170Z,18.00
2019-02-19T08:12:58.122Z,18.00
2019-02-19T08:13:58.110Z,18.02
2019-02-19T08:14:58.094Z,17.99
2019-02-19T08:15:58.082Z,17.99
2019-02-19T08:16:58.100Z,17.99
2019-02-19T08:17:58.100Z,17.99
2019-02-19T08:18:58.058Z,18.00
2019-02-19T08:19:58.044Z,18.00
2019-02-19T08:20:58.033Z,18.00
2019-02-19T08:21:58.024Z,18.00
2019-02-19T08:22:58.058Z,18.00
2019-02-19T08:23:58.005Z,17.99
2019-02-19T08:24:57.989Z,17.99
2019-02-19T08:25:57.983Z,18.00
2019-02-19T08:26:57.970Z,17.99
2019-02-19T08:27:57.996Z,18.00
2019-02-19T08:29:11.395Z,17.99
2019-02-19T08:29:58.939Z,18.00
2019-02-19T08:30:57.927Z,18.00
2019-02-19T08:31:57.920Z,17.99
2019-02-19T08:32:57.950Z,18.00
2019-02-19T08:33:57.898Z,18.00
2019-02-19T08:34:57.885Z,18.00
2019-02-19T08:35:57.877Z,18.00
2019-02-19T08:36:57.862Z,18.00
2019-02-19T08:37:57.896Z,18.02
2019-02-19T08:38:57.838Z,18.00
2019-02-19T08:39:57.830Z,18.02
2019-02-19T08:40:57.824Z,18.02
2019-02-19T08:41:57.809Z,18.00
2019-02-19T08:42:57.833Z,18.02
2019-02-19T08:43:57.789Z,18.02
2019-02-19T08:44:57.781Z,18.03
2019-02-19T08:45:57.769Z,18.03
2019-02-19T08:46:57.789Z,18.03
2019-02-19T08:47:57.742Z,18.03
2019-02-19T08:48:57.731Z,18.03
2019-02-19T08:49:58.123Z,18.03
2019-02-19T08:50:57.714Z,18.07
2019-02-19T08:51:57.706Z,18.07
2019-02-19T08:52:57.693Z,18.08
2019-02-19T08:53:57.715Z,18.07
2019-02-19T08:54:57.672Z,18.08
2019-02-19T08:55:57.665Z,18.08
2019-02-19T08:56:57.647Z,18.08
2019-02-19T08:57:57.669Z,18.10
2019-02-19T08:58:57.627Z,18.10
2019-02-19T08:59:57.615Z,18.10
2019-02-19T09:00:57.608Z,18.11
2019-02-19T09:01:57.622Z,18.11
2019-02-19T09:02:57.583Z,18.11
2019-02-19T09:03:57.572Z,18.12
2019-02-19T09:04:57.592Z,18.14
2019-02-19T09:05:57.549Z,18.15
2019-02-19T09:06:57.576Z,18.17
2019-02-19T09:07:57.529Z,18.20
2019-02-19T09:08:57.522Z,18.21
2019-02-19T09:09:57.508Z,18.25
2019-02-19T09:10:57.506Z,18.26
2019-02-19T09:11:57.518Z,18.27
2019-02-19T09:12:57.510Z,18.29
2019-02-19T09:13:57.467Z,18.32
2019-02-19T09:14:57.457Z,18.32
2019-02-19T09:15:57.449Z,18.35
2019-02-19T09:16:57.476Z,18.33
2019-02-19T09:17:57.425Z,18.35
2019-02-19T09:18:57.415Z,18.37
2019-02-19T09:19:57.406Z,18.39
2019-02-19T09:20:57.391Z,18.39
2019-02-19T09:21:57.413Z,18.39
2019-02-19T09:22:57.395Z,18.41
2019-02-19T09:23:58.509Z,18.42
2019-02-19T09:24:57.348Z,18.44
2019-02-19T09:25:57.339Z,18.44
2019-02-19T09:26:57.329Z,18.45
2019-02-19T09:27:57.346Z,18.45
2019-02-19T09:28:57.306Z,18.47
2019-02-19T09:29:57.298Z,18.47
2019-02-19T09:30:57.290Z,18.48
2019-02-19T09:31:57.276Z,18.48
2019-02-19T09:32:57.291Z,18.50
2019-02-19T09:33:57.283Z,18.51
2019-02-19T09:34:57.244Z,18.50
2019-02-19T09:35:57.233Z,18.50
2019-02-19T09:36:57.224Z,18.51
2019-02-19T09:37:57.214Z,18.52
2019-02-19T09:38:57.237Z,18.52
2019-02-19T09:39:57.190Z,18.54
2019-02-19T09:40:57.182Z,18.54
2019-02-19T09:41:57.167Z,18.55
2019-02-19T09:42:57.156Z,18.55
2019-02-19T09:43:57.192Z,18.55
2019-02-19T09:44:57.137Z,18.55
2019-02-19T09:45:58.972Z,18.55
2019-02-19T09:46:57.118Z,18.57
2019-02-19T09:48:01.261Z,18.57
2019-02-19T09:48:57.133Z,18.58
2019-02-19T09:49:57.081Z,18.58
2019-02-19T09:50:57.069Z,18.60
2019-02-19T09:51:57.057Z,18.60
2019-02-19T09:53:00.112Z,18.60
2019-02-19T09:53:57.071Z,18.60
2019-02-19T09:54:57.029Z,18.60
2019-02-19T09:55:57.020Z,18.62
2019-02-19T09:56:57.050Z,18.62
2019-02-19T09:57:56.997Z,18.62
2019-02-19T09:58:56.993Z,18.62
2019-02-19T09:59:56.977Z,18.62
2019-02-19T10:00:56.971Z,18.63
2019-02-19T10:01:56.987Z,18.62
2019-02-19T10:02:56.972Z,18.63
2019-02-19T10:03:56.931Z,18.62
2019-02-19T10:04:56.923Z,18.63
2019-02-19T10:05:56.952Z,18.63
2019-02-19T10:06:56.908Z,18.62
2019-02-19T10:07:56.892Z,18.63
2019-02-19T10:08:56.879Z,18.63
2019-02-19T10:09:56.865Z,18.63
2019-02-19T10:10:56.894Z,18.65
2019-02-19T10:11:56.848Z,18.63
2019-02-19T10:12:56.869Z,18.63
2019-02-19T10:13:56.825Z,18.63
2019-02-19T10:14:56.818Z,18.65
2019-02-19T10:15:56.802Z,18.63
2019-02-19T10:16:56.794Z,18.65
2019-02-19T10:17:56.818Z,18.66
2019-02-19T10:18:56.778Z,18.66
2019-02-19T10:19:56.792Z,18.67
2019-02-19T10:20:56.747Z,18.66
2019-02-19T10:21:56.738Z,18.67
2019-02-19T10:22:56.730Z,18.67
2019-02-19T10:23:56.718Z,18.67
2019-02-19T10:24:56.740Z,18.67
2019-02-19T10:25:56.701Z,18.67
2019-02-19T10:26:56.685Z,18.67
2019-02-19T10:27:56.671Z,18.67
2019-02-19T10:28:56.664Z,18.67
2019-02-19T10:29:56.683Z,18.66
2019-02-19T10:30:56.642Z,18.67
2019-02-19T10:31:56.638Z,18.67
2019-02-19T10:32:56.619Z,18.67
2019-02-19T10:33:56.612Z,18.69
2019-02-19T10:34:56.631Z,18.67
2019-02-19T10:35:56.589Z,18.69
2019-02-19T10:36:56.584Z,18.69
2019-02-19T10:37:56.617Z,18.67
2019-02-19T10:38:56.562Z,18.67
2019-02-19T10:39:56.547Z,18.69
2019-02-19T10:40:56.535Z,18.69
2019-02-19T10:41:56.527Z,18.69
2019-02-19T10:42:56.543Z,18.70
2019-02-19T10:43:56.537Z,18.69
2019-02-19T10:44:56.492Z,18.69
2019-02-19T10:45:56.481Z,18.69
2019-02-19T10:46:56.473Z,18.69
2019-02-19T10:47:56.466Z,18.67
2019-02-19T10:48:56.481Z,18.69
2019-02-19T10:49:56.441Z,18.67
2019-02-19T10:50:56.441Z,18.67
2019-02-19T10:51:56.424Z,18.69
2019-02-19T10:52:56.414Z,18.67
2019-02-19T10:53:56.431Z,18.69
2019-02-19T10:54:56.388Z,18.69
2019-02-19T10:55:56.421Z,18.70
2019-02-19T10:56:56.367Z,18.69
2019-02-19T10:57:56.362Z,18.69
2019-02-19T10:58:56.349Z,18.69
2019-02-19T10:59:56.345Z,18.72
2019-02-19T11:00:56.369Z,18.72
2019-02-19T11:01:56.310Z,18.70
2019-02-19T11:02:56.304Z,18.72
2019-02-19T11:03:56.291Z,18.72
2019-02-19T11:04:56.283Z,18.72
2019-02-19T11:05:56.299Z,18.72
2019-02-19T11:06:56.262Z,18.70
2019-02-19T11:07:56.250Z,18.72
2019-02-19T11:08:56.236Z,18.72
2019-02-19T11:09:56.261Z,18.69
2019-02-19T11:10:56.218Z,18.70
2019-02-19T11:11:58.073Z,18.69
2019-02-19T11:12:56.197Z,18.69
2019-02-19T11:13:56.269Z,18.67
2019-02-19T11:14:56.170Z,18.69
2019-02-19T11:15:56.163Z,18.67
2019-02-19T11:16:56.154Z,18.67
2019-02-19T11:17:56.139Z,18.67
2019-02-19T11:18:56.176Z,18.69
2019-02-19T11:19:56.122Z,18.69
2019-02-19T11:20:56.111Z,18.67
2019-02-19T11:21:56.107Z,18.67
2019-02-19T11:22:56.091Z,18.67
2019-02-19T11:23:56.110Z,18.69
2019-02-19T11:24:56.099Z,18.67
2019-02-19T11:25:56.088Z,18.67
2019-02-19T11:26:56.050Z,18.67
2019-02-19T11:27:56.038Z,18.67
2019-02-19T11:28:56.027Z,18.66
2019-02-19T11:29:56.029Z,18.66
2019-02-19T11:30:56.034Z,18.66
2019-02-19T11:31:55.993Z,18.65
2019-02-19T11:32:55.978Z,18.63
2019-02-19T11:33:55.977Z,18.63
2019-02-19T11:34:55.990Z,18.62
2019-02-19T11:35:55.980Z,18.58
2019-02-19T11:36:55.943Z,18.62
2019-02-19T11:37:55.929Z,18.62
2019-02-19T11:38:55.921Z,18.62
2019-02-19T11:39:55.908Z,18.60
2019-02-19T11:40:55.947Z,18.62
2019-02-19T11:41:55.883Z,18.60
2019-02-19T11:42:55.878Z,18.62
2019-02-19T11:43:55.868Z,18.60
2019-02-19T11:44:55.850Z,18.62
2019-02-19T11:45:55.882Z,18.62
2019-02-19T11:46:55.832Z,18.63
2019-02-19T11:47:55.822Z,18.62
2019-02-19T11:48:56.305Z,18.60
2019-02-19T11:49:55.804Z,18.58
2019-02-19T11:50:55.823Z,18.58
2019-02-19T11:51:55.781Z,18.58
2019-02-19T11:52:55.768Z,18.58
2019-02-19T11:53:55.794Z,18.58
2019-02-19T11:54:55.748Z,18.57
2019-02-19T11:55:55.764Z,18.55
2019-02-19T11:56:55.721Z,18.57
2019-02-19T11:57:55.716Z,18.57
2019-02-19T11:58:55.730Z,18.57
2019-02-19T11:59:55.698Z,18.57
2019-02-19T12:00:55.687Z,18.58
2019-02-19T12:01:55.674Z,18.58
2019-02-19T12:02:55.670Z,18.57
2019-02-19T12:03:55.726Z,18.57
2019-02-19T12:04:55.638Z,18.57
2019-02-19T12:05:55.627Z,18.57
2019-02-19T12:06:55.618Z,18.55
2019-02-19T12:07:55.610Z,18.58
2019-02-19T12:08:55.625Z,18.55
2019-02-19T12:09:55.585Z,18.57
2019-02-19T12:10:55.576Z,18.55
2019-02-19T12:11:55.598Z,18.57
2019-02-19T12:12:55.552Z,18.55
2019-02-19T12:13:55.547Z,18.55
2019-02-19T12:14:55.536Z,18.57
2019-02-19T12:15:55.523Z,18.57
2019-02-19T12:16:55.543Z,18.57
2019-02-19T12:17:55.504Z,18.57
2019-02-19T12:18:55.493Z,18.58
2019-02-19T12:19:55.486Z,18.57
2019-02-19T12:20:55.499Z,18.57
2019-02-19T12:21:55.461Z,18.57
2019-02-19T12:22:55.448Z,18.55
2019-02-19T12:23:55.440Z,18.57
2019-02-19T12:24:55.457Z,18.57
2019-02-19T12:25:55.419Z,18.58
2019-02-19T12:26:55.407Z,18.57
2019-02-19T12:27:55.394Z,18.57
2019-02-19T12:28:55.389Z,18.58
2019-02-19T12:29:55.405Z,18.58
2019-02-19T12:30:55.362Z,18.60
2019-02-19T12:31:55.351Z,18.60
2019-02-19T12:32:55.343Z,18.60
2019-02-19T12:33:55.333Z,18.60
2019-02-19T12:34:55.359Z,18.62
2019-02-19T12:35:55.317Z,18.62
2019-02-19T12:36:55.302Z,18.60
2019-02-19T12:37:55.299Z,18.62
2019-02-19T12:38:55.274Z,18.63
2019-02-19T12:39:55.310Z,18.62
2019-02-19T12:40:55.261Z,18.62
2019-02-19T12:41:55.245Z,18.63
2019-02-19T12:42:55.235Z,18.63
2019-02-19T12:43:55.227Z,18.62
2019-02-19T12:44:55.244Z,18.62
2019-02-19T12:45:55.223Z,18.62
2019-02-19T12:46:55.195Z,18.62
2019-02-19T12:47:55.181Z,18.62
2019-02-19T12:48:55.166Z,18.63
2019-02-19T12:49:55.159Z,18.62
2019-02-19T12:50:55.185Z,18.62
2019-02-19T12:51:55.633Z,18.63